NCAR-RAP Real-Time Weather Data

Output produced by METARs form (19 June 2019  11:56 UTC)
found at http://weather.rap.ucar.edu/surface/
 
KDDC 191152Z AUTO 36006KT 4SM BR OVC004 17/16 A2988 RMK AO2 CIG 002V006 SLP093 60000 70001 T01670161 10178 20161 53001
KDDC 191129Z AUTO 35004KT 4SM BR BKN003 16/16 A2987 RMK AO2 CIG 002V006 T01610156
KDDC 191107Z AUTO 35009KT 5SM BR FEW003 17/16 A2987 RMK AO2 T01670161
KDDC 191052Z AUTO 35008KT 6SM BR CLR 17/16 A2986 RMK AO2 SLP088 T01670161
KDDC 191028Z AUTO 35008KT 6SM BR FEW017 17/16 A2986 RMK AO2 T01670161
KDDC 191018Z AUTO 35005KT 6SM BR FEW006 FEW010 BKN017 17/16 A2987 RMK AO2 T01670161
KDDC 190959Z AUTO 34004KT 8SM SCT006 OVC012 17/16 A2987 RMK AO2 T01720161
KDDC 190952Z AUTO 32003KT 8SM OVC012 17/16 A2987 RMK AO2 SLP089 T01720161
KDDC 190945Z AUTO 29005KT 8SM FEW007 OVC012 17/16 A2988 RMK AO2 T01720161
KDDC 190930Z AUTO 28005KT 8SM SCT004 BKN009 OVC016 17/16 A2987 RMK AO2 T01720161
KDDC 190852Z AUTO 00000KT 8SM OVC004 17/16 A2987 RMK AO2 SLP089 60000 T01720161 53009
KDDC 190826Z AUTO 36005KT 9SM BKN005 17/16 A2985 RMK AO2 T01670161
KDDC 190818Z AUTO 33005KT 9SM SCT005 BKN110 17/16 A2985 RMK AO2 T01720161
KDDC 190752Z AUTO 03008KT 9SM BKN110 17/16 A2984 RMK AO2 SLP079 T01720161
KDDC 190652Z AUTO 01003KT 10SM CLR 17/16 A2987 RMK AO2 RAE0559 SLP089 P0000 T01720161
KDDC 190552Z AUTO 03012KT 10SM -RA FEW039 FEW080 BKN110 18/16 A2984 RMK AO2 PRESFR SLP081 P0001 60001 T01780161 10228 20178 402670172 58011
KDDC 190536Z AUTO 03007KT 10SM -RA SCT025 BKN039 OVC110 18/16 A2991 RMK AO2 PRESFR P0001 T01780161
KDDC 190518Z AUTO 24004KT 10SM -RA BKN025 OVC035 18/17 A2994 RMK AO2 LTG DSNT SE P0001 T01830167
KDDC 190452Z AUTO 29004KT 9SM -RA SCT032 BKN095 BKN120 18/17 A2994 RMK AO2 LTG DSNT SE AND S RAB45 SLP113 P0000 T01830167
KDDC 190352Z AUTO 01010KT 10SM FEW120 18/17 A2992 RMK AO2 LTG DSNT SW SLP109 T01830167
KDDC 190252Z AUTO 03011KT 10SM CLR 19/17 A2988 RMK AO2 SLP095 T01940172 50005
KDDC 190152Z AUTO 05007KT 8SM CLR 21/19 A2989 RMK AO2 SLP099 T02060189
KDDC 190052Z AUTO 36011KT 10SM CLR 22/19 A2988 RMK AO2 SLP098 T02170189
KDDC 182352Z AUTO 03010KT 10SM CLR 23/18 A2986 RMK AO2 SLP089 T02330178 10267 20222 58007
KDDC 182252Z AUTO 02010KT 10SM CLR 24/18 A2989 RMK AO2 PK WND 01026/2205 LTG DSNT E SLP096 T02390183
KDDC 182205Z AUTO 02020G26KT 10SM FEW031 BKN045 23/19 A2989 RMK AO2 PK WND 01026/2205 LTG DSNT NE T02330189
KDDC 182152Z AUTO 25004KT 10SM VCTS SCT042 SCT055 BKN080 26/17 A2989 RMK AO2 LTG DSNT N AND NE SLP094 T02610172
KDDC 182150Z AUTO 26005KT 10SM VCTS SCT042 SCT055 BKN075 26/18 A2989 RMK AO2 LTG DSNT N AND NE
KDDC 182052Z AUTO 00000KT 9SM BKN042 BKN060 26/17 A2991 RMK AO2 LTG DSNT N SLP102 T02610172 56017
KDDC 181952Z AUTO VRB06KT 9SM FEW033 FEW050 26/18 A2992 RMK AO2 LTG DSNT NE SLP106 T02610183
KDDC 181852Z AUTO 13006KT 9SM SCT028 24/18 A2995 RMK AO2 LTG DSNT N SLP116 T02440183
KDDC 181841Z AUTO VRB03KT 9SM SCT026 SCT032 24/18 A2995 RMK AO2 T02440178
KDDC 181834Z AUTO 00000KT 8SM BKN027 BKN032 24/18 A2996 RMK AO2 T02440178
KDDC 181801Z AUTO 9SM SCT021 24/19 A2996 RMK AO2 T02390189
KDDC 181752Z AUTO 15005KT 9SM BKN021 24/19 A2996 RMK AO2 SLP122 T02390189 10239 20172 58005
KDDC 181708Z AUTO 00000KT 8SM SCT019 22/18 A2997 RMK AO2 T02220183
KDDC 181652Z AUTO 14004KT 8SM BKN018 22/18 A2997 RMK AO2 SLP123 T02220183
KDDC 181632Z AUTO 16007KT 8SM BKN015 22/18 A2997 RMK AO2 T02170183
KDDC 181620Z AUTO 15006KT 8SM BKN014 BKN029 22/19 A2997 RMK AO2 T02170189
KDDC 181613Z AUTO 14006KT 8SM SCT014 BKN029 21/18 A2997 RMK AO2 T02110183